Tenacious — ZQHM2 — position and weather

sailwx.info

Track history (hours):
 
Tides and Currents Weather Stations Pressure Air Temp Water Temp Dewpoint Dewpoint Depression Visibility Wind Speed Wind Dir Waves Ship Positions

Tenacious (United Kingdom)

Ship's website: http://www.jst.org.uk/

Last reported at 2020-Apr-09 04:32 UTC. Time now 2020-Aug-13 11:25 UTC.
Position N 51°28' W 004°51'.
Warning: this ship's position is months out of date.

Length 65 m; beam 10.6 m; draft 4.6 m.

Type: Sailing vessel. MMSI: 235000230.

Date/timePositionNaut miles runAvg speedWind from/ knotsBaromVisibWave heightAir tempDewpointWater temp
2020-Apr-09 04:32N 51°28' W 004°51'0 8.4
2020-Apr-09 04:30N 51°28' W 004°51'13 8.9
2020-Apr-09 03:00N 51°30' W 005°13'90 7.3
2020-Apr-08 14:39N 51°43' W 007°37'14 6.5
2020-Apr-08 12:30N 51°44' W 007°59'6 6.3
2020-Apr-08 11:30N 51°45' W 008°09'6 5.9
2020-Apr-08 10:30N 51°50' W 008°16'1 0.9
2020-Apr-08 09:28N 51°50' W 008°16'0 0.0
2020-Apr-08 08:58N 51°50' W 008°16'0 0.0
2020-Apr-08 06:58N 51°50' W 008°16'0 0.0
2020-Apr-08 04:58N 51°50' W 008°16'0 0.0
2020-Apr-08 04:28N 51°50' W 008°16'0 0.0
2020-Apr-08 02:28N 51°50' W 008°16'0 0.0
2020-Apr-08 01:28N 51°50' W 008°16'0 0.0
2020-Apr-07 23:58N 51°50' W 008°16'0 0.0
2020-Apr-07 18:58N 51°50' W 008°16'0 0.0
2020-Apr-07 18:28N 51°50' W 008°16'0 0.0
2020-Apr-07 17:58N 51°50' W 008°16'0 0.1
2020-Apr-07 17:28N 51°50' W 008°16'0 0.0
2020-Apr-07 14:28N 51°50' W 008°16'0 0.0
2020-Apr-07 13:58N 51°50' W 008°16'0 0.0
2020-Apr-07 11:58N 51°50' W 008°16'10 4.0
2020-Apr-07 09:30N 51°41' W 008°11'1 2.0
2020-Apr-07 09:00N 51°41' W 008°13'13 4.2
2020-Apr-07 06:00N 51°34' W 008°30'188 7.0
2020-Apr-06 03:00N 49°48' W 012°36'272 7.5 270 / 221008.1 10.1 3.7
2020-Apr-04 15:00N 47°30' W 018°30'85 7.1 140 / 28988.1 12.812.2
2020-Apr-04 03:00N 46°24' W 019°48'98 8.1 160 / 33996.1 14.814.3
2020-Apr-03 15:00N 44°54' W 020°42'76 6.4 130 / 351004.0 12.311.2
2020-Apr-03 03:00N 43°54' W 021°48'   120 / 361011.0
2020-Mar-30 10:26N 37°44' W 025°40'1 0.2
2020-Mar-30 07:40N 37°44' W 025°40'0 0.0
2020-Mar-30 05:28N 37°44' W 025°40'  
Track history (hours):
 
Tides and Currents Weather Stations Pressure Air Temp Water Temp Dewpoint Dewpoint Depression Visibility Wind Speed Wind Dir Waves Ship Positions

Tenacious (United Kingdom)

Ship's website: http://www.jst.org.uk/

Last reported at 2020-Apr-09 04:32 UTC. Time now 2020-Aug-13 11:25 UTC.
Position N 51°28' W 004°51'.
Warning: this ship's position is months out of date.

Length 65 m; beam 10.6 m; draft 4.6 m.

Type: Sailing vessel. MMSI: 235000230.

Date/timePositionNaut miles runAvg speedWind from/ knotsBaromVisibWave heightAir tempDewpointWater temp
2020-Apr-09 04:32N 51°28' W 004°51'0 8.4
2020-Apr-09 04:30N 51°28' W 004°51'13 8.9
2020-Apr-09 03:00N 51°30' W 005°13'90 7.3
2020-Apr-08 14:39N 51°43' W 007°37'14 6.5
2020-Apr-08 12:30N 51°44' W 007°59'6 6.3
2020-Apr-08 11:30N 51°45' W 008°09'6 5.9
2020-Apr-08 10:30N 51°50' W 008°16'1 0.9
2020-Apr-08 09:28N 51°50' W 008°16'0 0.0
2020-Apr-08 08:58N 51°50' W 008°16'0 0.0
2020-Apr-08 06:58N 51°50' W 008°16'0 0.0
2020-Apr-08 04:58N 51°50' W 008°16'0 0.0
2020-Apr-08 04:28N 51°50' W 008°16'0 0.0
2020-Apr-08 02:28N 51°50' W 008°16'0 0.0
2020-Apr-08 01:28N 51°50' W 008°16'0 0.0
2020-Apr-07 23:58N 51°50' W 008°16'0 0.0
2020-Apr-07 18:58N 51°50' W 008°16'0 0.0
2020-Apr-07 18:28N 51°50' W 008°16'0 0.0
2020-Apr-07 17:58N 51°50' W 008°16'0 0.1
2020-Apr-07 17:28N 51°50' W 008°16'0 0.0
2020-Apr-07 14:28N 51°50' W 008°16'0 0.0
2020-Apr-07 13:58N 51°50' W 008°16'0 0.0
2020-Apr-07 11:58N 51°50' W 008°16'10 4.0
2020-Apr-07 09:30N 51°41' W 008°11'1 2.0
2020-Apr-07 09:00N 51°41' W 008°13'13 4.2
2020-Apr-07 06:00N 51°34' W 008°30'188 7.0
2020-Apr-06 03:00N 49°48' W 012°36'272 7.5 270 / 221008.1 10.1 3.7
2020-Apr-04 15:00N 47°30' W 018°30'85 7.1 140 / 28988.1 12.812.2
2020-Apr-04 03:00N 46°24' W 019°48'98 8.1 160 / 33996.1 14.814.3
2020-Apr-03 15:00N 44°54' W 020°42'76 6.4 130 / 351004.0 12.311.2
2020-Apr-03 03:00N 43°54' W 021°48'   120 / 361011.0
2020-Mar-30 10:26N 37°44' W 025°40'1 0.2
2020-Mar-30 07:40N 37°44' W 025°40'0 0.0
2020-Mar-30 05:28N 37°44' W 025°40'  

Dump ship's entire track history